createdAt,value
2018-03-15T08:15:20.924Z,984.81
2018-03-15T08:16:29.578Z,984.79
2018-03-15T08:18:18.411Z,984.73
2018-03-15T08:19:28.292Z,984.76
2018-03-15T08:21:13.020Z,984.78
2018-03-15T08:23:35.946Z,984.75
2018-03-15T08:25:58.943Z,984.74
2018-03-15T08:26:58.631Z,984.72
2018-03-15T08:27:58.411Z,984.65
2018-03-15T08:30:21.947Z,984.61
2018-03-15T08:31:21.522Z,984.67
2018-03-15T08:32:34.230Z,984.68
2018-03-15T08:34:21.898Z,984.74
2018-03-15T08:35:18.233Z,984.67
2018-03-15T08:36:16.923Z,984.70
2018-03-15T08:38:40.998Z,984.68
2018-03-15T08:39:40.797Z,984.62
2018-03-15T08:42:04.027Z,984.63
2018-03-15T08:43:03.768Z,984.56
2018-03-15T08:45:26.945Z,984.54
2018-03-15T08:46:26.737Z,984.54
2018-03-15T08:48:49.742Z,984.52
2018-03-15T08:49:49.738Z,984.54
2018-03-15T08:52:12.638Z,984.54
2018-03-15T08:53:21.593Z,984.50
2018-03-15T08:54:12.687Z,984.53
2018-03-15T08:56:35.950Z,984.53
2018-03-15T18:30:10.735Z,983.06
2018-03-15T18:31:19.314Z,983.08
2018-03-15T18:33:05.095Z,983.08
2018-03-15T18:35:27.861Z,983.09
2018-03-15T18:36:29.674Z,983.07
2018-03-15T18:37:37.176Z,983.11
2018-03-15T18:39:23.885Z,983.14
2018-03-15T18:41:46.004Z,983.13
2018-03-15T18:42:45.925Z,983.13
2018-03-15T18:45:09.625Z,983.17
2018-03-15T18:46:17.580Z,983.14
2018-03-15T18:48:07.461Z,983.19
2018-03-15T18:50:31.188Z,983.16
2018-03-15T18:52:54.587Z,983.24
2018-03-15T18:53:53.878Z,983.25
2018-03-15T18:56:16.974Z,983.23
2018-03-15T18:58:40.012Z,983.20
2018-03-15T19:01:19.153Z,983.25
2018-03-15T19:02:28.611Z,983.24
2018-03-15T19:04:42.049Z,983.26
2018-03-15T19:05:51.098Z,983.24
2018-03-15T19:07:36.723Z,983.27
2018-03-15T19:08:46.748Z,983.26
2018-03-15T19:10:31.070Z,983.26
2018-03-15T19:11:41.596Z,983.29
2018-03-15T19:13:24.315Z,983.30
2018-03-15T19:15:48.171Z,983.25
2018-03-15T19:16:48.108Z,983.27
2018-03-15T19:18:42.895Z,983.34
2018-03-15T19:21:07.658Z,983.38
2018-03-15T19:23:31.016Z,983.38
2018-03-15T19:25:53.965Z,983.41
2018-03-15T19:28:16.679Z,983.43
2018-03-15T19:29:27.596Z,983.41
2018-03-15T19:30:26.250Z,983.52
2018-03-15T19:32:39.945Z,983.59
2018-03-15T19:35:03.253Z,983.67
2018-03-15T19:37:25.653Z,983.75
2018-03-15T19:39:58.849Z,983.74
2018-03-15T19:40:57.357Z,983.72
2018-03-15T19:42:43.268Z,983.73
2018-03-15T19:43:42.932Z,983.74
2018-03-15T19:46:05.288Z,983.83
2018-03-15T19:47:04.948Z,983.81
2018-03-15T19:48:14.826Z,983.83
2018-03-15T19:50:59.351Z,983.85
2018-03-15T19:53:22.430Z,983.85
2018-03-15T19:54:22.377Z,983.88
2018-03-15T19:55:22.559Z,983.92
2018-03-15T19:56:22.344Z,983.90
2018-03-15T19:57:22.294Z,983.86
2018-03-15T19:59:45.477Z,983.88
2018-03-15T20:00:45.457Z,983.90
2018-03-15T20:01:45.395Z,983.90
2018-03-15T20:02:45.383Z,983.91
2018-03-15T20:03:45.346Z,983.88
2018-03-15T20:04:45.352Z,983.90
2018-03-15T20:05:45.665Z,983.91
2018-03-15T20:06:45.351Z,983.92
2018-03-15T20:07:45.264Z,983.92
2018-03-15T20:08:45.270Z,983.93
2018-03-15T20:09:45.221Z,983.94
2018-03-15T20:10:45.209Z,983.96
2018-03-15T20:11:45.266Z,983.91
2018-03-15T20:12:45.190Z,983.89
2018-03-15T20:13:45.159Z,983.90
2018-03-15T20:16:21.125Z,983.90
2018-03-15T20:17:20.922Z,983.91
2018-03-15T20:18:21.104Z,983.88
2018-03-15T20:19:21.085Z,983.89
2018-03-15T20:20:21.042Z,983.90
2018-03-15T20:22:45.032Z,983.90
2018-03-15T20:23:44.869Z,983.91
2018-03-15T20:24:44.860Z,983.90
2018-03-15T20:25:45.062Z,983.90
2018-03-15T20:26:44.876Z,983.85
2018-03-15T20:29:39.337Z,983.87
2018-03-15T20:32:00.379Z,983.85
2018-03-15T20:32:50.288Z,983.86
2018-03-15T20:33:50.262Z,983.85
2018-03-15T20:34:50.238Z,983.84
2018-03-15T20:37:15.038Z,983.87
2018-03-15T20:38:14.423Z,983.88
2018-03-15T20:40:38.477Z,983.87
2018-03-15T20:43:03.409Z,983.83
2018-03-15T20:45:26.092Z,983.82
2018-03-15T20:48:00.906Z,983.83
2018-03-15T20:50:13.009Z,983.89
2018-03-15T20:52:46.718Z,983.83
2018-03-15T20:55:12.090Z,983.84
2018-03-15T20:56:01.911Z,983.85
2018-03-15T20:58:37.743Z,983.84
2018-03-15T21:00:50.785Z,983.78
2018-03-15T21:01:50.586Z,983.77
2018-03-15T21:02:50.598Z,983.75
2018-03-15T21:03:50.580Z,983.79
2018-03-15T21:06:13.988Z,983.74
2018-03-15T21:08:49.008Z,983.80
2018-03-15T21:11:01.007Z,983.74
2018-03-15T21:13:25.737Z,983.73
2018-03-15T21:16:03.178Z,983.63
2018-03-15T21:16:49.376Z,983.65
2018-03-15T21:19:23.041Z,983.61
2018-03-15T21:21:38.746Z,983.59
2018-03-15T21:22:38.715Z,983.61
2018-03-15T21:24:44.346Z,983.58
2018-03-15T21:27:08.810Z,983.55
2018-03-15T21:29:19.677Z,983.50
2018-03-15T21:31:42.760Z,983.52
2018-03-15T21:34:17.071Z,983.49
2018-03-15T21:36:30.077Z,983.49
2018-03-15T21:38:52.492Z,983.50
2018-03-15T21:40:04.468Z,983.52
2018-03-15T21:41:47.513Z,983.49
2018-03-15T21:44:20.360Z,983.50
2018-03-15T21:45:10.058Z,983.48
2018-03-15T21:47:33.246Z,983.49
2018-03-15T21:48:32.840Z,983.50
2018-03-15T21:49:42.824Z,983.50
2018-03-15T21:51:28.535Z,983.46
2018-03-15T21:53:55.601Z,983.41
2018-03-15T21:56:17.324Z,983.40
2018-03-15T21:58:41.706Z,983.39
2018-03-15T21:59:38.765Z,983.36
2018-03-15T22:02:04.073Z,983.38
2018-03-15T22:03:01.719Z,983.38
2018-03-15T22:05:28.444Z,983.36
2018-03-15T22:08:22.727Z,983.34
2018-03-15T22:09:22.583Z,983.34
2018-03-15T22:11:18.483Z,983.36
2018-03-15T22:12:18.556Z,983.40
2018-03-15T22:13:25.333Z,983.39
2018-03-15T22:15:21.745Z,983.36
2018-03-15T22:16:11.905Z,983.38
2018-03-15T22:17:11.906Z,983.36
2018-03-15T22:18:11.864Z,983.31
2018-03-15T22:23:12.414Z,983.32
2018-03-15T22:25:55.442Z,983.32
2018-03-15T22:30:58.405Z,983.34
2018-03-15T22:34:02.892Z,983.34
2018-03-15T22:40:54.598Z,983.26
2018-03-15T22:41:45.344Z,983.28
2018-03-15T22:43:41.165Z,983.26
2018-03-15T22:44:49.585Z,983.22
2018-03-15T22:46:45.125Z,983.28
2018-03-15T22:47:33.921Z,983.30
2018-03-15T22:50:18.125Z,983.34
2018-03-15T22:51:18.161Z,983.33
2018-03-15T22:53:58.239Z,983.32
2018-03-15T22:56:32.154Z,983.34
2018-03-15T22:57:21.245Z,983.33
2018-03-15T23:01:26.645Z,983.42
2018-03-15T23:03:48.561Z,983.41
2018-03-15T23:06:11.924Z,983.39
2018-03-15T23:08:34.036Z,983.41
2018-03-15T23:10:56.921Z,983.39
2018-03-15T23:12:07.519Z,983.35
2018-03-15T23:18:28.075Z,983.50
2018-03-15T23:21:13.898Z,983.50
2018-03-15T23:22:03.397Z,983.51
2018-03-15T23:23:03.338Z,983.55
2018-03-15T23:25:26.367Z,983.51
2018-03-15T23:27:49.450Z,983.57
2018-03-15T23:28:49.367Z,983.60
2018-03-15T23:31:12.515Z,983.63
2018-03-15T23:32:12.471Z,983.63
2018-03-15T23:33:12.464Z,983.62
2018-03-15T23:35:35.886Z,983.61
2018-03-15T23:38:10.859Z,983.68
2018-03-15T23:39:12.355Z,983.71
2018-03-15T23:40:55.151Z,983.62
2018-03-15T23:43:18.335Z,983.71
2018-03-15T23:45:52.150Z,983.74
2018-03-15T23:46:42.851Z,983.70
2018-03-15T23:49:05.196Z,983.68
2018-03-15T23:51:27.470Z,983.69
2018-03-15T23:52:37.144Z,983.71
2018-03-15T23:54:21.478Z,983.72
2018-03-15T23:55:31.380Z,983.69
2018-03-15T23:57:25.832Z,983.71
2018-03-15T23:58:16.486Z,983.66
